createdAt,value
2022-11-18T00:26:14.576Z,77.50
2022-11-18T00:36:25.581Z,77.80
2022-11-18T00:39:16.718Z,77.70
2022-11-18T00:46:48.977Z,77.70
2022-11-18T00:49:12.342Z,77.80
2022-11-18T00:54:51.721Z,77.70
2022-11-18T01:50:25.532Z,78.20
2022-11-18T02:16:23.878Z,78.30
2022-11-18T15:09:38.426Z,70.50
2022-11-18T15:12:46.726Z,70.60
2022-11-18T15:22:14.559Z,70.90
2022-11-18T15:29:46.254Z,71.10
2022-11-18T15:32:14.843Z,70.40
2022-11-18T15:35:07.490Z,70.60
2022-11-18T15:49:04.844Z,70.40
2022-11-18T15:51:44.540Z,70.30
2022-11-18T15:54:12.965Z,70.30
2022-11-18T16:06:05.473Z,70.10
2022-11-18T16:09:00.210Z,69.70
2022-11-18T16:11:59.949Z,69.70
2022-11-18T16:15:13.946Z,70.10
2022-11-18T16:18:11.297Z,69.80
2022-11-18T16:21:02.586Z,69.80
2022-11-18T16:23:47.327Z,70.00
2022-11-18T16:29:45.866Z,70.00
2022-11-18T16:32:22.136Z,69.60
2022-11-18T16:35:01.563Z,69.70
2022-11-18T16:38:15.433Z,70.00
2022-11-18T16:41:08.840Z,69.90
2022-11-18T16:43:50.690Z,69.70
2022-11-18T16:46:32.243Z,69.90
2022-11-18T16:49:12.860Z,69.80
2022-11-18T16:51:46.338Z,70.20
2022-11-18T16:57:17.829Z,69.80
2022-11-18T16:59:52.879Z,69.90
2022-11-18T17:02:31.264Z,69.50
2022-11-18T17:05:41.942Z,69.70
2022-11-18T17:08:33.199Z,69.40
2022-11-18T17:11:26.754Z,69.80
2022-11-18T17:14:05.096Z,69.20
2022-11-18T17:16:48.999Z,69.50
2022-11-18T17:19:35.230Z,69.00
2022-11-18T17:22:11.762Z,69.20
2022-11-18T17:24:42.556Z,68.90
2022-11-18T17:27:25.190Z,69.20
2022-11-18T17:30:16.368Z,68.60
2022-11-18T17:33:04.615Z,68.80
2022-11-18T17:35:52.672Z,69.30
2022-11-18T17:38:24.674Z,68.40
2022-11-18T17:41:00.818Z,68.70
2022-11-18T17:43:47.886Z,69.00
2022-11-18T17:46:37.606Z,68.60
2022-11-18T17:49:08.722Z,68.90
2022-11-18T17:51:43.099Z,68.80
2022-11-18T17:54:24.447Z,69.10
2022-11-18T17:56:58.689Z,68.50
2022-11-18T17:59:41.624Z,68.50
2022-11-18T18:02:23.864Z,68.10
2022-11-18T18:04:56.017Z,68.50
2022-11-18T18:07:42.704Z,68.70
2022-11-18T18:10:30.894Z,69.00
2022-11-18T18:13:17.165Z,68.40
2022-11-18T18:15:55.856Z,68.20
2022-11-18T18:18:33.521Z,68.30
2022-11-18T18:21:12.828Z,68.20
2022-11-18T18:24:11.882Z,68.20
2022-11-18T18:27:01.635Z,67.90
2022-11-18T18:29:49.296Z,67.90
2022-11-18T18:32:52.610Z,67.50
2022-11-18T18:35:34.869Z,68.00
2022-11-18T18:38:18.130Z,67.90
2022-11-18T18:44:01.789Z,68.10
2022-11-18T18:46:33.431Z,67.60
2022-11-18T18:49:10.896Z,68.00
2022-11-18T18:52:07.587Z,68.10
2022-11-18T18:55:21.623Z,67.20
2022-11-18T18:58:36.504Z,67.60
2022-11-18T19:01:28.670Z,67.30
2022-11-18T19:08:05.213Z,67.00
2022-11-18T19:14:19.056Z,66.50
2022-11-18T19:16:53.488Z,67.20
2022-11-18T19:19:40.420Z,67.10
2022-11-18T19:22:33.605Z,66.80
2022-11-18T19:25:07.820Z,66.90
2022-11-18T19:27:41.074Z,66.50
2022-11-18T19:30:18.263Z,67.10
2022-11-18T19:32:52.358Z,66.60
2022-11-18T19:36:21.185Z,67.10
2022-11-18T19:38:52.303Z,66.70
2022-11-18T19:41:27.721Z,66.90
2022-11-18T19:44:17.770Z,67.00
2022-11-18T19:46:58.397Z,66.90
2022-11-18T19:49:32.959Z,66.90
2022-11-18T19:52:43.405Z,66.70
2022-11-18T19:55:12.648Z,66.70
2022-11-18T19:57:44.395Z,67.20
2022-11-18T20:00:19.910Z,66.70
2022-11-18T20:04:03.214Z,66.70
2022-11-18T20:06:40.664Z,66.60
2022-11-18T20:09:10.277Z,66.90
2022-11-18T20:11:43.827Z,66.50
2022-11-18T20:14:17.131Z,67.10
2022-11-18T20:16:52.874Z,66.50
2022-11-18T20:19:28.893Z,66.80
2022-11-18T20:21:59.995Z,67.10
2022-11-18T20:28:39.269Z,66.50
2022-11-18T20:31:11.378Z,66.50
2022-11-18T20:33:51.617Z,66.50
2022-11-18T20:36:35.833Z,66.50
2022-11-18T20:39:18.342Z,66.20
2022-11-18T20:42:08.676Z,66.10
2022-11-18T20:44:42.304Z,66.50
2022-11-18T20:47:53.463Z,66.50
2022-11-18T20:50:30.840Z,66.20
2022-11-18T20:53:09.665Z,66.60
2022-11-18T20:56:44.089Z,66.70
2022-11-18T21:01:59.374Z,66.70
2022-11-18T21:04:31.068Z,66.70
2022-11-18T21:07:02.605Z,66.60
2022-11-18T21:09:35.480Z,66.90
2022-11-18T21:12:25.873Z,66.90
2022-11-18T21:14:59.869Z,66.50
2022-11-18T21:17:36.171Z,67.00
2022-11-18T21:20:28.206Z,66.70
2022-11-18T21:23:00.219Z,66.50
2022-11-18T21:25:41.766Z,66.80
2022-11-18T21:28:11.624Z,66.80
2022-11-18T21:30:46.323Z,66.70
2022-11-18T21:33:25.888Z,66.70
2022-11-18T21:35:54.895Z,66.30
2022-11-18T21:38:36.201Z,66.60
2022-11-18T21:41:41.619Z,66.60
2022-11-18T21:44:21.210Z,66.50
2022-11-18T21:46:55.030Z,66.60
2022-11-18T21:49:26.207Z,66.60
2022-11-18T21:51:58.823Z,66.80
2022-11-18T21:54:35.178Z,66.50
2022-11-18T21:57:06.704Z,66.60
2022-11-18T21:59:46.806Z,66.80
2022-11-18T22:02:27.554Z,66.50
2022-11-18T22:05:07.844Z,66.60
2022-11-18T22:07:41.284Z,66.70
2022-11-18T22:10:16.112Z,66.50
2022-11-18T22:12:47.056Z,66.00
2022-11-18T22:15:26.557Z,66.40
2022-11-18T22:18:01.340Z,66.40
2022-11-18T22:20:39.223Z,66.30
2022-11-18T22:23:15.138Z,66.20
2022-11-18T22:25:44.661Z,66.50
2022-11-18T22:28:21.685Z,66.20
2022-11-18T22:30:53.758Z,66.00
2022-11-18T22:33:33.179Z,66.50
2022-11-18T22:36:13.840Z,66.40
2022-11-18T22:38:49.266Z,65.80
2022-11-18T22:41:34.815Z,66.50
2022-11-18T22:44:09.408Z,66.40
2022-11-18T22:46:44.993Z,66.00
2022-11-18T22:49:15.362Z,66.30
2022-11-18T22:51:53.624Z,66.50
2022-11-18T22:58:41.644Z,66.10
2022-11-18T23:01:18.160Z,66.20
2022-11-18T23:03:50.778Z,66.40
2022-11-18T23:06:24.782Z,66.40
2022-11-18T23:08:55.195Z,66.30
2022-11-18T23:11:44.287Z,66.30
2022-11-18T23:14:31.048Z,66.10
2022-11-18T23:17:07.220Z,65.80
2022-11-18T23:19:47.035Z,66.10
2022-11-18T23:22:23.112Z,66.00
2022-11-18T23:24:51.849Z,66.10
2022-11-18T23:27:29.531Z,66.00
2022-11-18T23:30:13.461Z,66.40
2022-11-18T23:32:49.084Z,66.10
2022-11-18T23:35:22.215Z,66.30
2022-11-18T23:38:00.579Z,66.30
2022-11-18T23:43:24.685Z,66.00
2022-11-18T23:45:53.850Z,66.10
2022-11-18T23:48:25.320Z,66.20
2022-11-18T23:50:57.585Z,66.10
2022-11-18T23:53:45.226Z,65.90
2022-11-18T23:56:19.918Z,66.00
2022-11-18T23:59:00.299Z,66.20
